createdAt,value
2017-07-22T00:01:12.058Z,52.40
2017-07-22T00:03:40.122Z,52.50
2017-07-22T00:06:08.259Z,52.80
2017-07-22T00:08:36.331Z,52.60
2017-07-22T00:11:04.405Z,51.90
2017-07-22T00:13:32.474Z,51.90
2017-07-22T00:16:00.554Z,51.90
2017-07-22T00:18:28.619Z,51.90
2017-07-22T00:20:56.699Z,51.90
2017-07-22T00:23:24.768Z,51.90
2017-07-22T00:25:52.840Z,51.90
2017-07-22T00:28:20.908Z,51.90
2017-07-22T00:30:48.971Z,51.90
2017-07-22T00:33:17.357Z,51.90
2017-07-22T00:35:45.418Z,51.90
2017-07-22T00:38:13.487Z,51.90
2017-07-22T00:40:41.560Z,51.90
2017-07-22T00:43:09.630Z,51.90
2017-07-22T00:45:37.704Z,51.90
2017-07-22T00:48:05.775Z,51.90
2017-07-22T00:50:33.851Z,51.90
2017-07-22T00:53:01.922Z,51.90
2017-07-22T00:55:30.011Z,51.90
2017-07-22T00:57:58.087Z,52.40
2017-07-22T01:00:26.151Z,52.60
2017-07-22T01:02:54.212Z,53.00
2017-07-22T01:05:22.321Z,53.20
2017-07-22T01:07:51.199Z,53.40
2017-07-22T01:10:20.049Z,54.60
2017-07-22T01:12:48.120Z,53.80
2017-07-22T01:15:16.188Z,54.00
2017-07-22T01:17:44.262Z,54.00
2017-07-22T01:20:12.334Z,53.90
2017-07-22T01:22:40.419Z,53.90
2017-07-22T01:25:08.490Z,53.60
2017-07-22T01:27:36.555Z,53.70
2017-07-22T01:30:04.623Z,53.60
2017-07-22T01:32:32.693Z,53.60
2017-07-22T01:35:00.759Z,53.30
2017-07-22T01:37:28.849Z,53.10
2017-07-22T01:39:56.910Z,53.20
2017-07-22T01:42:24.985Z,53.10
2017-07-22T01:44:53.042Z,53.00
2017-07-22T01:47:21.126Z,53.00
2017-07-22T01:49:49.199Z,53.20
2017-07-22T01:52:17.271Z,53.20
2017-07-22T01:54:45.343Z,53.10
2017-07-22T01:57:13.415Z,53.10
2017-07-22T01:59:41.486Z,53.10
2017-07-22T02:02:09.968Z,52.90
2017-07-22T02:04:38.026Z,52.80
2017-07-22T02:07:06.090Z,52.80
2017-07-22T02:09:34.164Z,52.70
2017-07-22T02:12:02.248Z,52.70
2017-07-22T02:14:30.315Z,52.70
2017-07-22T02:16:58.385Z,52.90
2017-07-22T02:19:26.455Z,53.00
2017-07-22T02:21:54.831Z,53.00
2017-07-22T02:24:22.899Z,53.20
2017-07-22T02:26:50.963Z,53.30
2017-07-22T02:29:19.811Z,53.20
2017-07-22T02:31:47.883Z,53.20
2017-07-22T02:34:15.961Z,53.30
2017-07-22T02:36:44.029Z,53.30
2017-07-22T02:39:12.131Z,53.30
2017-07-22T02:41:40.968Z,54.20
2017-07-22T02:44:09.042Z,53.50
2017-07-22T02:46:37.113Z,53.70
2017-07-22T02:49:05.191Z,53.70
2017-07-22T02:51:33.256Z,53.90
2017-07-22T02:54:01.350Z,54.00
2017-07-22T02:56:29.427Z,54.30
2017-07-22T02:58:57.495Z,55.00
2017-07-22T03:01:25.649Z,55.10
2017-07-22T03:03:53.702Z,55.40
2017-07-22T03:06:21.776Z,55.40
2017-07-22T03:08:49.834Z,55.40
2017-07-22T03:11:17.911Z,55.30
2017-07-22T03:13:45.973Z,55.30
2017-07-22T03:16:14.835Z,55.30
2017-07-22T03:18:42.915Z,55.30
2017-07-22T03:21:10.995Z,55.30
2017-07-22T03:23:39.431Z,55.30
2017-07-22T03:26:07.495Z,55.20
2017-07-22T03:28:35.615Z,55.30
2017-07-22T03:31:03.687Z,55.20
2017-07-22T03:33:31.750Z,55.20
2017-07-22T03:35:59.811Z,55.30
2017-07-22T03:38:27.883Z,55.50
2017-07-22T03:40:55.949Z,55.50
2017-07-22T03:43:24.023Z,55.40
2017-07-22T03:45:52.100Z,55.40
2017-07-22T03:48:20.204Z,55.30
2017-07-22T03:50:48.258Z,55.30
2017-07-22T03:53:16.330Z,55.70
2017-07-22T03:55:44.401Z,55.90
2017-07-22T03:58:12.475Z,56.00
2017-07-22T04:00:40.682Z,56.20
2017-07-22T04:03:09.531Z,56.50
2017-07-22T04:05:37.603Z,56.40
2017-07-22T04:08:05.674Z,56.70
2017-07-22T04:10:33.740Z,56.60
2017-07-22T04:13:01.820Z,56.90
2017-07-22T04:15:29.880Z,56.80
2017-07-22T04:17:57.946Z,56.90
2017-07-22T04:20:26.030Z,56.80
2017-07-22T04:22:54.097Z,57.30
2017-07-22T04:25:22.172Z,57.10
2017-07-22T04:27:50.253Z,57.30
2017-07-22T04:30:18.322Z,57.00
2017-07-22T04:32:46.391Z,57.50
2017-07-22T04:35:14.974Z,57.40
2017-07-22T04:37:43.047Z,57.50
2017-07-22T04:40:11.123Z,57.80
2017-07-22T04:42:39.200Z,57.90
2017-07-22T04:45:07.263Z,58.10
2017-07-22T04:47:35.416Z,58.00
2017-07-22T04:50:03.505Z,58.20
2017-07-22T04:52:31.566Z,58.10
2017-07-22T04:55:00.399Z,58.20
2017-07-22T04:57:28.472Z,58.20
2017-07-22T04:59:56.539Z,58.10
2017-07-22T05:02:24.611Z,58.10
2017-07-22T05:04:52.674Z,58.30
2017-07-22T05:07:20.759Z,58.50
2017-07-22T05:09:48.826Z,58.50
2017-07-22T05:12:16.903Z,58.90
2017-07-22T05:14:45.316Z,58.80
2017-07-22T05:17:14.251Z,59.40
2017-07-22T05:19:42.322Z,59.40
2017-07-22T05:22:11.234Z,59.40
2017-07-22T05:24:39.302Z,59.40
2017-07-22T05:27:07.374Z,59.70
2017-07-22T05:29:35.450Z,60.50
2017-07-22T05:32:03.519Z,60.60
2017-07-22T05:34:31.638Z,61.10
2017-07-22T05:36:59.703Z,61.00
2017-07-22T05:39:27.775Z,61.40
2017-07-22T05:41:55.840Z,61.70
2017-07-22T05:44:24.732Z,62.50
2017-07-22T05:46:52.844Z,62.30
2017-07-22T05:49:20.925Z,62.20
2017-07-22T05:51:48.986Z,62.70
2017-07-22T05:54:17.067Z,62.40
2017-07-22T05:56:45.128Z,61.90
2017-07-22T05:59:13.196Z,62.30
2017-07-22T06:01:41.475Z,62.30
2017-07-22T06:04:09.550Z,62.70
2017-07-22T06:06:37.634Z,62.50
2017-07-22T06:09:05.701Z,62.60
2017-07-22T06:11:33.762Z,62.80
2017-07-22T06:14:01.835Z,62.80
2017-07-22T06:16:29.907Z,62.90
2017-07-22T06:18:57.977Z,62.70
2017-07-22T06:21:26.055Z,62.80
2017-07-22T06:23:54.126Z,63.10
2017-07-22T06:26:22.199Z,63.20
2017-07-22T06:28:50.379Z,62.50
2017-07-22T06:31:18.447Z,62.40
2017-07-22T06:33:46.513Z,62.70
2017-07-22T06:36:14.591Z,63.00
2017-07-22T06:38:42.694Z,63.00
2017-07-22T06:41:10.847Z,62.50
2017-07-22T06:43:38.931Z,62.30
2017-07-22T06:46:07.003Z,62.40
2017-07-22T06:48:35.076Z,62.00
2017-07-22T06:51:03.284Z,61.50
2017-07-22T06:53:32.118Z,60.20
2017-07-22T06:56:00.191Z,60.00
2017-07-22T06:58:28.262Z,59.40
2017-07-22T07:00:56.343Z,59.30
2017-07-22T07:03:25.219Z,58.70
2017-07-22T07:05:53.303Z,58.60
2017-07-22T07:08:21.382Z,58.70
2017-07-22T07:10:49.444Z,59.20
2017-07-22T07:13:17.512Z,59.00
2017-07-22T07:15:45.586Z,59.00
2017-07-22T07:18:13.657Z,58.80
2017-07-22T07:20:41.729Z,58.80
2017-07-22T07:23:09.904Z,58.90
2017-07-22T07:25:37.987Z,59.10
2017-07-22T07:28:06.091Z,59.10
2017-07-22T07:30:34.173Z,59.00
2017-07-22T07:33:02.239Z,59.00
2017-07-22T07:35:30.307Z,58.80
2017-07-22T07:37:58.391Z,58.60
2017-07-22T07:40:26.463Z,58.30
2017-07-22T07:42:54.519Z,58.50
2017-07-22T07:45:22.583Z,58.30
2017-07-22T07:47:50.654Z,58.20
2017-07-22T07:50:18.724Z,58.20
2017-07-22T07:52:46.794Z,58.40
2017-07-22T07:55:14.867Z,58.90
2017-07-22T07:57:42.949Z,58.90
2017-07-22T08:00:11.005Z,58.50
2017-07-22T08:02:39.083Z,58.60
2017-07-22T08:05:07.156Z,56.70
2017-07-22T08:07:35.230Z,55.80
2017-07-22T08:10:03.299Z,55.80
2017-07-22T08:12:31.367Z,55.60
2017-07-22T08:14:59.444Z,55.50
2017-07-22T08:17:27.507Z,55.40
2017-07-22T08:19:55.592Z,55.00
2017-07-22T08:22:23.663Z,54.80
2017-07-22T08:24:51.736Z,54.50
2017-07-22T08:27:19.795Z,54.40
2017-07-22T08:29:47.868Z,54.10
2017-07-22T08:32:15.931Z,54.10
2017-07-22T08:34:43.997Z,53.50
2017-07-22T08:37:12.073Z,52.80
2017-07-22T08:39:40.143Z,52.90
2017-07-22T08:42:08.222Z,52.00
2017-07-22T08:44:37.141Z,51.80
2017-07-22T08:47:05.223Z,51.20
2017-07-22T08:49:33.428Z,50.90
2017-07-22T08:52:01.528Z,49.80
2017-07-22T08:54:29.598Z,50.20
2017-07-22T08:56:57.679Z,50.10
2017-07-22T08:59:25.744Z,50.40
2017-07-22T09:01:53.872Z,48.90
2017-07-22T09:04:22.723Z,48.80
2017-07-22T09:06:50.796Z,49.00
2017-07-22T09:09:18.867Z,48.90
2017-07-22T09:11:47.041Z,49.00
2017-07-22T09:14:15.107Z,48.30
2017-07-22T09:16:43.170Z,48.90
2017-07-22T09:19:11.243Z,49.00
2017-07-22T09:21:39.309Z,49.10
2017-07-22T09:24:07.387Z,48.70
2017-07-22T09:26:35.469Z,48.70
2017-07-22T09:29:03.534Z,48.00
2017-07-22T09:31:31.604Z,48.10
2017-07-22T09:33:59.729Z,47.70
2017-07-22T09:36:27.791Z,46.60
2017-07-22T09:38:55.863Z,46.30
2017-07-22T09:41:23.990Z,46.00
2017-07-22T09:43:52.043Z,45.90
2017-07-22T09:46:20.110Z,46.00
2017-07-22T09:48:48.178Z,45.30
2017-07-22T09:51:17.059Z,45.70
2017-07-22T09:53:46.730Z,45.20
2017-07-22T09:56:14.810Z,45.20
2017-07-22T09:58:42.878Z,44.90
2017-07-22T10:01:10.952Z,44.80
2017-07-22T10:03:39.023Z,45.10
2017-07-22T10:06:07.095Z,44.90
2017-07-22T10:08:35.168Z,44.80
2017-07-22T10:11:03.250Z,44.40
2017-07-22T10:13:31.307Z,44.70
2017-07-22T10:15:59.388Z,44.60
2017-07-22T10:18:27.467Z,43.90
2017-07-22T10:20:55.531Z,44.50
2017-07-22T10:23:23.603Z,44.00
2017-07-22T10:25:51.680Z,44.60
2017-07-22T10:28:19.748Z,43.70
2017-07-22T10:30:47.805Z,42.70
2017-07-22T10:33:15.883Z,43.10
2017-07-22T10:35:43.951Z,42.60
2017-07-22T10:38:12.030Z,42.70
2017-07-22T10:40:40.091Z,41.90
2017-07-22T10:43:08.159Z,42.10
2017-07-22T10:45:36.239Z,42.20
2017-07-22T10:48:04.319Z,42.10
2017-07-22T10:50:32.379Z,41.20
2017-07-22T10:53:00.451Z,41.40
2017-07-22T10:55:28.519Z,40.30
2017-07-22T10:57:56.591Z,40.40
2017-07-22T11:00:24.669Z,39.30
2017-07-22T11:02:52.734Z,38.60
2017-07-22T11:05:20.816Z,39.00
2017-07-22T11:07:48.879Z,38.70
2017-07-22T11:10:17.768Z,39.10
2017-07-22T11:12:45.875Z,39.50
2017-07-22T11:15:13.942Z,38.90
2017-07-22T11:17:42.012Z,38.80
2017-07-22T11:20:10.090Z,39.20
2017-07-22T11:22:38.155Z,39.00
2017-07-22T11:25:06.238Z,39.30
2017-07-22T11:27:34.303Z,39.60
2017-07-22T11:30:02.367Z,38.90
2017-07-22T11:32:30.440Z,39.00
2017-07-22T11:34:58.511Z,39.40
2017-07-22T11:37:26.595Z,39.50
2017-07-22T11:39:54.659Z,39.90
2017-07-22T11:42:22.734Z,39.20
2017-07-22T11:44:50.807Z,39.40
2017-07-22T11:47:18.882Z,39.20
2017-07-22T11:49:46.964Z,38.50
2017-07-22T11:52:15.044Z,37.60
2017-07-22T11:54:43.127Z,37.20
2017-07-22T11:57:12.000Z,36.90
2017-07-22T11:59:40.106Z,36.70
2017-07-22T12:02:08.229Z,36.80
2017-07-22T12:04:36.344Z,36.80
2017-07-22T12:07:05.218Z,36.90
2017-07-22T12:09:33.283Z,36.90
2017-07-22T12:12:01.359Z,37.50
2017-07-22T12:14:29.439Z,37.00
2017-07-22T12:16:57.499Z,37.00
2017-07-22T12:19:25.582Z,35.90
2017-07-22T12:21:54.260Z,36.40
2017-07-22T12:24:22.332Z,35.50
2017-07-22T12:26:50.410Z,34.40
2017-07-22T12:29:18.684Z,34.40
2017-07-22T12:31:47.544Z,32.40
2017-07-22T12:34:15.629Z,32.30
2017-07-22T12:36:43.699Z,33.20
2017-07-22T12:39:11.775Z,33.80
2017-07-22T12:41:39.843Z,33.60
2017-07-22T12:44:07.915Z,33.80
2017-07-22T12:46:35.986Z,34.70
2017-07-22T12:49:04.066Z,34.50
2017-07-22T12:51:32.134Z,35.10
2017-07-22T12:54:00.218Z,34.50
2017-07-22T12:56:28.303Z,34.50
2017-07-22T12:58:56.397Z,33.80
2017-07-22T13:01:24.472Z,33.90
2017-07-22T13:03:52.543Z,33.90
2017-07-22T13:06:20.611Z,33.50
2017-07-22T13:08:49.448Z,33.40
2017-07-22T13:11:17.514Z,33.30
2017-07-22T13:13:45.595Z,32.90
2017-07-22T13:16:13.671Z,33.30
2017-07-22T13:18:41.745Z,32.60
2017-07-22T13:21:09.814Z,32.70
2017-07-22T13:23:37.888Z,32.70
2017-07-22T13:26:05.963Z,32.80
2017-07-22T13:28:34.037Z,31.90
2017-07-22T13:31:02.118Z,32.40
2017-07-22T13:33:30.196Z,32.80
2017-07-22T13:35:58.260Z,32.80
2017-07-22T13:38:26.340Z,31.50
2017-07-22T13:40:54.399Z,31.00
2017-07-22T13:43:22.479Z,30.80
2017-07-22T13:45:50.561Z,30.70
2017-07-22T13:48:18.651Z,31.50
2017-07-22T13:50:46.714Z,31.00
2017-07-22T13:53:14.779Z,31.70
2017-07-22T13:55:42.853Z,31.40
2017-07-22T13:58:10.920Z,32.00
2017-07-22T14:00:38.988Z,31.30
2017-07-22T14:03:07.050Z,30.90
2017-07-22T14:05:35.115Z,31.00
2017-07-22T14:08:03.204Z,31.10
2017-07-22T14:10:31.275Z,31.60
2017-07-22T14:12:59.347Z,31.40
2017-07-22T14:15:27.433Z,31.50
2017-07-22T14:17:55.497Z,31.10
2017-07-22T14:20:23.598Z,31.30
2017-07-22T14:22:51.658Z,31.50
2017-07-22T14:25:19.735Z,31.60
2017-07-22T14:27:47.796Z,31.70
2017-07-22T14:30:15.869Z,31.40
2017-07-22T14:32:44.718Z,33.00
2017-07-22T14:35:12.787Z,32.00
2017-07-22T14:37:40.864Z,32.80
2017-07-22T14:40:08.940Z,32.90
2017-07-22T14:42:37.021Z,32.10
2017-07-22T14:45:05.087Z,31.90
2017-07-22T14:47:33.172Z,31.40
2017-07-22T14:50:01.252Z,32.10
2017-07-22T14:52:29.326Z,31.70
2017-07-22T14:54:57.395Z,31.60
2017-07-22T14:57:25.472Z,31.70
2017-07-22T14:59:53.545Z,32.00
2017-07-22T15:02:21.616Z,32.10
2017-07-22T15:04:49.702Z,32.20
2017-07-22T15:07:18.544Z,32.20
2017-07-22T15:09:46.612Z,32.20
2017-07-22T15:12:14.682Z,32.70
2017-07-22T15:14:42.761Z,31.30
2017-07-22T15:17:10.825Z,31.10
2017-07-22T15:19:38.903Z,31.00
2017-07-22T15:22:06.973Z,30.90
2017-07-22T15:24:35.043Z,31.10
2017-07-22T15:27:03.114Z,31.70
2017-07-22T15:29:31.211Z,31.10
2017-07-22T15:31:59.280Z,31.10
2017-07-22T15:34:27.347Z,30.80
2017-07-22T15:36:55.427Z,31.00
2017-07-22T15:39:23.518Z,31.10
2017-07-22T15:41:51.595Z,30.70
2017-07-22T15:44:19.659Z,30.80
2017-07-22T15:46:47.731Z,31.10
2017-07-22T15:49:15.803Z,31.60
2017-07-22T15:51:43.874Z,31.50
2017-07-22T15:54:11.944Z,31.60
2017-07-22T15:56:40.020Z,31.70
2017-07-22T15:59:08.085Z,31.40
2017-07-22T16:01:36.165Z,31.30
2017-07-22T16:04:04.222Z,32.30
2017-07-22T16:06:32.311Z,31.70
2017-07-22T16:09:00.380Z,33.00
2017-07-22T16:11:28.451Z,31.90
2017-07-22T16:13:56.540Z,32.00
2017-07-22T16:16:24.603Z,32.10
2017-07-22T16:18:52.683Z,32.60
2017-07-22T16:21:20.743Z,32.60
2017-07-22T16:23:48.828Z,33.00
2017-07-22T16:26:16.904Z,33.90
2017-07-22T16:28:45.755Z,33.00
2017-07-22T16:31:13.836Z,33.00
2017-07-22T16:33:41.916Z,33.00
2017-07-22T16:36:10.040Z,33.00
2017-07-22T16:38:38.128Z,32.70
2017-07-22T16:41:06.207Z,33.00
2017-07-22T16:43:34.283Z,33.00
2017-07-22T16:46:02.857Z,33.10
2017-07-22T16:48:31.240Z,33.00
2017-07-22T16:50:59.308Z,33.00
2017-07-22T16:53:27.385Z,33.00
2017-07-22T16:55:55.460Z,33.00
2017-07-22T16:58:23.532Z,33.00
2017-07-22T17:00:51.607Z,32.90
2017-07-22T17:03:19.671Z,32.90
2017-07-22T17:05:47.757Z,32.90
2017-07-22T17:08:15.841Z,33.60
2017-07-22T17:10:43.913Z,34.00
2017-07-22T17:13:11.984Z,33.50
2017-07-22T17:15:40.060Z,33.70
2017-07-22T17:18:08.143Z,34.40
2017-07-22T17:20:36.222Z,34.60
2017-07-22T17:23:04.339Z,34.40
2017-07-22T17:25:32.420Z,33.90
2017-07-22T17:28:00.496Z,34.10
2017-07-22T17:30:28.571Z,34.10
2017-07-22T17:32:56.651Z,33.70
2017-07-22T17:35:24.720Z,34.10
2017-07-22T17:37:52.812Z,34.40
2017-07-22T17:40:20.878Z,34.20
2017-07-22T17:42:48.952Z,33.90
2017-07-22T17:45:17.023Z,34.60
2017-07-22T17:47:45.096Z,34.10
2017-07-22T17:50:13.167Z,34.20
2017-07-22T17:52:41.255Z,34.20
2017-07-22T17:55:09.328Z,36.10
2017-07-22T17:57:37.415Z,35.90
2017-07-22T18:00:05.475Z,35.80
2017-07-22T18:02:33.557Z,34.60
2017-07-22T18:05:01.643Z,35.50
2017-07-22T18:07:29.720Z,35.00
2017-07-22T18:09:57.817Z,34.90
2017-07-22T18:12:25.907Z,34.90
2017-07-22T18:14:53.991Z,36.00
2017-07-22T18:17:22.062Z,35.50
2017-07-22T18:19:50.146Z,36.50
2017-07-22T18:22:18.226Z,36.10
2017-07-22T18:24:46.299Z,36.00
2017-07-22T18:27:14.370Z,35.90
2017-07-22T18:29:42.528Z,35.80
2017-07-22T18:32:10.598Z,36.30
2017-07-22T18:34:38.675Z,36.80
2017-07-22T18:37:06.744Z,36.70
2017-07-22T18:39:34.818Z,37.20
2017-07-22T18:42:02.891Z,37.80
2017-07-22T18:44:30.963Z,38.20
2017-07-22T18:46:59.041Z,38.80
2017-07-22T18:49:27.103Z,39.20
2017-07-22T18:51:55.180Z,39.40
2017-07-22T18:54:23.262Z,39.80
2017-07-22T18:56:51.334Z,40.00
2017-07-22T18:59:19.719Z,40.40
2017-07-22T19:01:47.802Z,40.50
2017-07-22T19:04:15.858Z,41.90
2017-07-22T19:06:43.935Z,41.40
2017-07-22T19:09:12.008Z,41.40
2017-07-22T19:11:40.195Z,41.40
2017-07-22T19:14:09.043Z,42.20
2017-07-22T19:16:37.108Z,42.20
2017-07-22T19:19:05.174Z,42.30
2017-07-22T19:21:33.241Z,42.50
2017-07-22T19:24:01.323Z,42.70
2017-07-22T19:26:29.432Z,42.90
2017-07-22T19:28:57.506Z,43.30
2017-07-22T19:31:25.714Z,43.30
2017-07-22T19:33:53.795Z,43.50
2017-07-22T19:36:21.864Z,43.70
2017-07-22T19:38:50.703Z,44.20
2017-07-22T19:41:18.803Z,44.20
2017-07-22T19:43:47.643Z,44.60
2017-07-22T19:46:15.719Z,44.50
2017-07-22T19:48:43.784Z,44.70
2017-07-22T19:51:11.859Z,45.20
2017-07-22T19:53:39.931Z,45.40
2017-07-22T19:56:08.000Z,45.40
2017-07-22T19:58:36.076Z,45.40
2017-07-22T20:01:04.146Z,45.40
2017-07-22T20:03:32.223Z,45.40
2017-07-22T20:06:00.406Z,45.40
2017-07-22T20:08:28.464Z,46.10
2017-07-22T20:10:56.539Z,46.10
2017-07-22T20:13:24.622Z,46.50
2017-07-22T20:15:52.703Z,46.80
2017-07-22T20:18:20.797Z,46.80
2017-07-22T20:20:48.862Z,47.00
2017-07-22T20:23:16.946Z,47.20
2017-07-22T20:25:45.020Z,47.40
2017-07-22T20:28:13.095Z,47.70
2017-07-22T20:30:41.158Z,47.90
2017-07-22T20:33:09.232Z,48.30
2017-07-22T20:35:37.307Z,48.40
2017-07-22T20:38:05.471Z,48.60
2017-07-22T20:40:33.538Z,48.80
2017-07-22T20:43:01.622Z,49.00
2017-07-22T20:45:29.695Z,49.40
2017-07-22T20:47:57.759Z,49.30
2017-07-22T20:50:25.845Z,49.30
2017-07-22T20:52:53.910Z,49.60
2017-07-22T20:55:21.990Z,49.70
2017-07-22T20:57:50.055Z,49.90
2017-07-22T21:00:18.125Z,50.00
2017-07-22T21:02:46.190Z,50.00
2017-07-22T21:05:14.267Z,49.80
2017-07-22T21:07:42.337Z,50.00
2017-07-22T21:10:10.407Z,50.00
2017-07-22T21:12:38.472Z,50.10
2017-07-22T21:15:06.617Z,50.20
2017-07-22T21:17:34.702Z,50.50
2017-07-22T21:20:02.767Z,50.80
2017-07-22T21:22:30.856Z,51.20
2017-07-22T21:24:58.931Z,51.20
2017-07-22T21:27:27.006Z,51.30
2017-07-22T21:29:55.180Z,51.30
2017-07-22T21:32:23.288Z,51.50
2017-07-22T21:34:52.116Z,51.70
2017-07-22T21:37:20.187Z,51.60
2017-07-22T21:39:48.242Z,51.60
2017-07-22T21:42:16.335Z,51.60
2017-07-22T21:44:44.405Z,52.10
2017-07-22T21:47:12.477Z,52.00
2017-07-22T21:49:40.610Z,52.10
2017-07-22T21:52:09.465Z,52.80
2017-07-22T21:54:37.541Z,52.80
2017-07-22T21:57:05.610Z,52.90
2017-07-22T21:59:33.679Z,52.80
2017-07-22T22:02:01.746Z,52.80
2017-07-22T22:04:29.818Z,52.80
2017-07-22T22:06:57.879Z,52.80
2017-07-22T22:09:25.967Z,52.80
2017-07-22T22:11:54.262Z,52.80
2017-07-22T22:14:22.318Z,53.50
2017-07-22T22:16:50.395Z,54.00
2017-07-22T22:19:18.479Z,54.30
2017-07-22T22:21:46.551Z,54.40
2017-07-22T22:24:14.635Z,54.30
2017-07-22T22:26:42.708Z,54.20
2017-07-22T22:29:10.771Z,53.90
2017-07-22T22:31:38.845Z,53.80
2017-07-22T22:34:06.992Z,53.70
2017-07-22T22:36:35.716Z,54.00
2017-07-22T22:39:04.539Z,54.60
2017-07-22T22:41:32.668Z,54.10
2017-07-22T22:44:00.730Z,54.50
2017-07-22T22:46:28.811Z,54.90
2017-07-22T22:48:56.879Z,55.50
2017-07-22T22:51:24.954Z,55.40
2017-07-22T22:53:53.027Z,54.90
2017-07-22T22:56:35.807Z,55.10
2017-07-22T22:59:03.895Z,55.00
2017-07-22T23:01:31.970Z,54.90
2017-07-22T23:04:00.043Z,54.90
2017-07-22T23:06:28.117Z,54.90
2017-07-22T23:08:56.192Z,54.90
2017-07-22T23:11:24.294Z,54.90
2017-07-22T23:13:53.129Z,55.90
2017-07-22T23:16:21.202Z,54.90
2017-07-22T23:18:49.275Z,55.00
2017-07-22T23:21:17.355Z,54.90
2017-07-22T23:23:45.423Z,54.90
2017-07-22T23:26:13.492Z,55.00
2017-07-22T23:28:41.570Z,55.00
2017-07-22T23:31:09.635Z,55.10
2017-07-22T23:33:37.712Z,54.90
2017-07-22T23:36:05.779Z,55.20
2017-07-22T23:38:33.837Z,55.40
2017-07-22T23:41:01.922Z,55.20
2017-07-22T23:43:30.004Z,55.50
2017-07-22T23:45:58.083Z,55.50
2017-07-22T23:48:26.159Z,55.50
2017-07-22T23:50:54.239Z,55.60
2017-07-22T23:53:22.312Z,55.60
2017-07-22T23:55:50.378Z,55.70
2017-07-22T23:58:18.459Z,55.50
